Time;durP1;ratioP1;P1;durP2;ratioP2;P2;SDS_P1;SDS_P2;PMS_P1;PMS_P2;Temp;Humidity;BMP_temperature;BMP_pressure;BME280_temperature;BME280_humidity;BME280_pressure;Samples;Min_cycle;Max_cycle;Signal;HPM_P1;HPM_P2
2022/07/08 00:01:33;;;;;;;5.85;0.80;;;14.60;99.90;;;;;;4879418;29;20494;-66
2022/07/08 00:03:59;;;;;;;7.25;1.33;;;14.60;99.90;;;;;;4879429;29;20056;-66
2022/07/08 00:06:25;;;;;;;3.35;0.90;;;14.60;99.90;;;;;;4893904;29;20096;-66
2022/07/08 00:08:51;;;;;;;5.78;0.80;;;14.60;99.90;;;;;;4879415;29;20088;-66
2022/07/08 00:11:17;;;;;;;7.45;1.00;;;14.60;99.90;;;;;;4879150;29;20053;-66
2022/07/08 00:13:43;;;;;;;5.57;0.93;;;14.60;99.90;;;;;;4880493;29;20105;-66
2022/07/08 00:16:08;;;;;;;3.47;0.70;;;14.60;99.90;;;;;;4881589;29;20052;-66
2022/07/08 00:18:34;;;;;;;4.43;0.70;;;14.60;99.90;;;;;;4882786;29;20398;-66
2022/07/08 00:21:00;;;;;;;4.28;0.80;;;14.60;99.90;;;;;;4882752;29;20053;-66
2022/07/08 00:23:25;;;;;;;3.67;0.68;;;14.60;99.90;;;;;;4882668;29;20184;-66
2022/07/08 00:25:51;;;;;;;4.07;0.70;;;14.60;99.90;;;;;;4881629;29;20053;-66
2022/07/08 00:28:17;;;;;;;2.70;0.70;;;14.60;99.90;;;;;;4882582;29;20045;-66
2022/07/08 00:30:42;;;;;;;5.38;0.90;;;14.60;99.90;;;;;;4882555;29;20057;-66
2022/07/08 00:33:08;;;;;;;5.57;0.90;;;14.50;99.90;;;;;;4866110;29;20057;-66
2022/07/08 00:35:34;;;;;;;6.53;0.93;;;14.50;99.90;;;;;;4882392;29;20489;-66
2022/07/08 00:38:00;;;;;;;6.47;0.80;;;14.50;99.90;;;;;;4882744;29;20374;-66
2022/07/08 00:40:25;;;;;;;3.47;0.80;;;14.40;99.90;;;;;;4882396;29;20049;-66
2022/07/08 00:42:52;;;;;;;4.78;0.68;;;14.40;99.90;;;;;;4882329;29;20084;-66
2022/07/08 00:45:17;;;;;;;3.75;0.73;;;14.40;99.90;;;;;;4882304;29;20059;-66
2022/07/08 00:47:44;;;;;;;6.57;0.82;;;14.40;99.90;;;;;;4882811;29;20045;-66
2022/07/08 00:50:11;;;;;;;4.80;0.90;;;14.40;99.90;;;;;;4882781;29;20059;-66
2022/07/08 00:52:40;;;;;;;4.32;0.80;;;14.40;99.90;;;;;;4881527;29;20057;-66
2022/07/08 00:55:07;;;;;;;4.18;1.02;;;14.30;99.90;;;;;;4881940;29;20057;-68
2022/07/08 00:57:37;;;;;;;5.82;0.80;;;14.30;99.90;;;;;;4882111;29;20064;-66
2022/07/08 01:00:04;;;;;;;4.15;0.80;;;14.30;99.90;;;;;;4896530;29;20049;-66
2022/07/08 01:02:30;;;;;;;4.55;0.70;;;14.30;99.90;;;;;;4882043;29;20511;-65
2022/07/08 01:04:55;;;;;;;6.05;0.77;;;14.30;99.90;;;;;;4881987;29;20049;-66
2022/07/08 01:07:22;;;;;;;5.00;0.90;;;14.30;99.90;;;;;;4880753;29;20049;-66
2022/07/08 01:09:48;;;;;;;5.25;0.80;;;14.30;99.90;;;;;;4881914;29;20085;-65
2022/07/08 01:12:14;;;;;;;5.93;0.90;;;14.30;99.90;;;;;;4882426;29;20087;-65
2022/07/08 01:14:40;;;;;;;7.30;1.20;;;14.30;99.90;;;;;;4881807;29;20593;-65
2022/07/08 01:17:05;;;;;;;4.95;0.90;;;14.30;99.90;;;;;;4880535;29;20097;-66
2022/07/08 01:19:34;;;;;;;5.50;0.88;;;14.20;99.90;;;;;;4880765;29;20056;-65
2022/07/08 01:22:00;;;;;;;3.95;0.90;;;14.20;99.90;;;;;;4881609;29;20501;-66
2022/07/08 01:24:26;;;;;;;7.07;0.95;;;14.20;99.90;;;;;;4882143;29;20052;-65
2022/07/08 01:26:52;;;;;;;8.45;1.00;;;14.10;99.90;;;;;;4880882;29;20052;-65
2022/07/08 01:29:17;;;;;;;3.97;0.77;;;14.10;99.90;;;;;;4881525;29;20101;-65
2022/07/08 01:31:43;;;;;;;5.53;0.90;;;14.10;99.90;;;;;;4865833;29;20099;-65
2022/07/08 01:34:09;;;;;;;7.13;0.80;;;14.00;99.90;;;;;;4880196;29;20124;-65
2022/07/08 01:36:34;;;;;;;5.95;0.90;;;14.00;99.90;;;;;;4896532;29;20048;-65
2022/07/08 01:39:00;;;;;;;3.33;0.70;;;14.00;99.90;;;;;;4881424;29;20174;-66
2022/07/08 01:41:26;;;;;;;3.47;0.68;;;14.00;99.90;;;;;;4881878;29;20080;-65
2022/07/08 01:43:52;;;;;;;11.38;0.98;;;13.90;99.90;;;;;;4881627;29;20049;-66
2022/07/08 01:46:17;;;;;;;4.05;0.82;;;13.90;99.90;;;;;;4881002;29;20478;-66
2022/07/08 01:48:43;;;;;;;7.35;1.10;;;13.90;99.90;;;;;;4881182;29;20059;-66
2022/07/08 01:51:09;;;;;;;5.25;0.90;;;13.90;99.90;;;;;;4880893;29;20056;-66
2022/07/08 01:53:34;;;;;;;5.10;1.00;;;13.90;99.90;;;;;;4881445;29;20127;-66
2022/07/08 01:56:00;;;;;;;3.45;0.80;;;13.90;99.90;;;;;;4879505;29;20061;-66
2022/07/08 01:58:26;;;;;;;5.55;0.90;;;13.80;99.90;;;;;;4881063;29;20049;-66
2022/07/08 02:00:52;;;;;;;4.95;0.90;;;13.80;99.90;;;;;;4881009;29;20045;-66
2022/07/08 02:03:17;;;;;;;6.07;0.95;;;13.80;99.90;;;;;;4880931;29;20051;-66
2022/07/08 02:05:43;;;;;;;6.15;1.25;;;13.80;99.90;;;;;;4880969;29;20128;-66
2022/07/08 02:08:09;;;;;;;6.47;1.20;;;13.80;99.90;;;;;;4880840;29;20049;-66
2022/07/08 02:13:19;;;;;;;7.90;0.90;;;13.70;99.90;;;;;;4879872;29;20500;-65
2022/07/08 02:15:46;;;;;;;9.27;1.15;;;13.70;99.90;;;;;;4881186;29;20052;-65
2022/07/08 02:18:12;;;;;;;4.90;0.82;;;13.70;99.90;;;;;;4880710;29;20086;-66
2022/07/08 02:20:38;;;;;;;5.03;1.00;;;13.60;99.90;;;;;;4880667;29;20088;-66
2022/07/08 02:23:03;;;;;;;6.32;0.80;;;13.60;99.90;;;;;;4880643;29;20056;-65
2022/07/08 02:25:29;;;;;;;5.53;0.75;;;13.60;99.90;;;;;;4880257;29;20053;-65
2022/07/08 02:27:55;;;;;;;6.13;1.10;;;13.60;99.90;;;;;;4879558;29;20140;-66
2022/07/08 02:30:20;;;;;;;5.00;0.80;;;13.60;99.90;;;;;;4879922;29;20084;-66
2022/07/08 02:32:46;;;;;;;6.15;1.00;;;13.60;99.90;;;;;;4880461;29;20048;-66
2022/07/08 02:35:12;;;;;;;4.32;0.85;;;13.50;99.90;;;;;;4880356;29;20041;-66
2022/07/08 02:37:37;;;;;;;4.90;0.85;;;13.50;99.90;;;;;;4879525;29;20534;-66
2022/07/08 02:40:03;;;;;;;5.72;0.80;;;13.50;99.90;;;;;;4880590;29;20056;-67
2022/07/08 02:42:29;;;;;;;6.15;1.02;;;13.50;99.90;;;;;;4880785;29;20088;-66
2022/07/08 02:44:56;;;;;;;2.90;0.80;;;13.40;99.90;;;;;;4881050;29;20141;-66
2022/07/08 02:47:21;;;;;;;3.53;0.70;;;13.40;99.90;;;;;;4879550;29;20053;-66
2022/07/08 02:49:47;;;;;;;6.63;0.80;;;13.40;99.90;;;;;;4880972;29;20080;-65
2022/07/08 02:52:13;;;;;;;4.10;0.80;;;13.40;99.90;;;;;;4863700;29;20057;-65
2022/07/08 02:54:39;;;;;;;3.22;0.70;;;13.30;99.90;;;;;;4879191;29;20135;-65
2022/07/08 02:57:05;;;;;;;6.30;1.00;;;13.30;99.90;;;;;;4880494;29;20053;-65
2022/07/08 02:59:30;;;;;;;5.97;0.70;;;13.30;99.90;;;;;;4880580;29;20379;-65
2022/07/08 03:01:56;;;;;;;8.13;0.82;;;13.30;99.90;;;;;;4878873;29;20092;-66
2022/07/08 03:04:22;;;;;;;4.18;0.93;;;13.20;99.90;;;;;;4879991;29;20505;-65
2022/07/08 03:06:48;;;;;;;5.50;1.13;;;13.20;99.90;;;;;;4879980;29;20041;-65
2022/07/08 03:09:13;;;;;;;4.43;0.90;;;13.20;99.90;;;;;;4879933;29;20068;-65
2022/07/08 03:11:39;;;;;;;5.07;0.77;;;13.20;99.90;;;;;;4878743;29;20095;-66
2022/07/08 03:14:05;;;;;;;7.88;1.10;;;13.20;99.90;;;;;;4878917;29;20104;-66
2022/07/08 03:16:31;;;;;;;5.63;1.10;;;13.20;99.90;;;;;;4879870;29;20109;-66
2022/07/08 03:18:56;;;;;;;6.82;0.98;;;13.20;99.90;;;;;;4878884;29;20049;-66
2022/07/08 03:21:22;;;;;;;6.65;0.88;;;13.10;99.90;;;;;;4880390;29;20095;-66
2022/07/08 03:23:48;;;;;;;9.05;1.02;;;13.10;99.90;;;;;;4878724;29;20486;-66
2022/07/08 03:26:13;;;;;;;7.03;1.00;;;13.10;99.90;;;;;;4878790;29;20051;-66
2022/07/08 03:28:39;;;;;;;7.25;1.20;;;13.20;99.90;;;;;;4878645;29;20128;-64
2022/07/08 03:31:05;;;;;;;4.68;0.98;;;13.10;99.90;;;;;;4879084;29;20482;-65
2022/07/08 03:33:30;;;;;;;5.40;1.10;;;13.10;99.90;;;;;;4878486;29;20398;-66
2022/07/08 03:35:56;;;;;;;6.85;0.75;;;13.10;99.90;;;;;;4879440;29;20048;-65
2022/07/08 03:38:22;;;;;;;4.03;1.00;;;13.10;99.90;;;;;;4879752;29;20109;-66
2022/07/08 03:43:31;;;;;;;6.30;0.93;;;13.10;99.90;;;;;;4878974;29;20057;-66
2022/07/08 03:45:57;;;;;;;7.60;1.20;;;13.10;99.90;;;;;;4878459;29;20112;-65
2022/07/08 03:48:23;;;;;;;5.78;1.20;;;13.00;99.90;;;;;;4879674;29;20088;-65
2022/07/08 03:50:48;;;;;;;6.35;0.80;;;13.00;99.90;;;;;;4883777;29;20057;-65
2022/07/08 03:53:14;;;;;;;4.53;0.85;;;13.00;99.90;;;;;;4883780;29;20053;-65
2022/07/08 03:55:40;;;;;;;6.57;1.00;;;13.00;99.90;;;;;;4883123;29;20119;-65
2022/07/08 03:58:05;;;;;;;3.90;0.80;;;13.00;99.90;;;;;;4883237;29;20049;-65
2022/07/08 04:00:31;;;;;;;2.88;0.80;;;13.10;99.90;;;;;;4882195;29;20470;-65
2022/07/08 04:02:57;;;;;;;4.30;0.90;;;13.10;99.90;;;;;;4883946;29;20120;-66
2022/07/08 04:05:23;;;;;;;5.38;0.90;;;13.10;99.90;;;;;;4882905;29;20053;-66
2022/07/08 04:07:48;;;;;;;3.85;0.90;;;13.20;99.90;;;;;;4882323;29;20405;-66
2022/07/08 04:10:14;;;;;;;6.50;0.80;;;13.20;99.90;;;;;;4881559;29;20052;-66
2022/07/08 04:12:40;;;;;;;5.68;0.90;;;13.20;99.90;;;;;;4881954;29;20140;-66
2022/07/08 04:15:06;;;;;;;7.72;1.20;;;13.30;99.90;;;;;;4881718;29;20100;-66
2022/07/08 04:17:33;;;;;;;5.55;0.70;;;13.30;99.90;;;;;;4882807;29;20064;-66
2022/07/08 04:19:58;;;;;;;6.18;0.90;;;13.30;99.90;;;;;;4881862;29;20057;-66
2022/07/08 04:22:24;;;;;;;5.10;0.80;;;13.30;99.90;;;;;;4882170;29;20057;-66
2022/07/08 04:24:50;;;;;;;3.88;0.70;;;13.40;99.90;;;;;;4866973;29;20052;-65
2022/07/08 04:27:15;;;;;;;6.35;0.90;;;13.40;99.90;;;;;;4882607;29;20044;-65
2022/07/08 04:29:41;;;;;;;4.13;0.65;;;13.40;99.90;;;;;;4883145;29;20053;-66
2022/07/08 04:32:07;;;;;;;3.55;0.80;;;13.50;99.90;;;;;;4882566;29;20110;-65
2022/07/08 04:34:32;;;;;;;5.75;1.05;;;13.50;99.90;;;;;;4882535;29;20108;-66
2022/07/08 04:36:58;;;;;;;6.55;1.00;;;13.50;99.90;;;;;;4882471;29;20048;-65
2022/07/08 04:39:25;;;;;;;3.83;0.98;;;13.50;99.90;;;;;;4882492;29;20056;-65
2022/07/08 04:41:51;;;;;;;6.65;1.75;;;13.50;99.90;;;;;;4881326;29;20057;-65
2022/07/08 04:44:16;;;;;;;5.50;1.20;;;13.50;99.90;;;;;;4882388;29;20500;-65
2022/07/08 04:46:42;;;;;;;4.07;0.77;;;13.50;99.90;;;;;;4881166;29;20478;-66
2022/07/08 04:49:08;;;;;;;4.70;1.17;;;13.60;99.90;;;;;;4882282;29;20057;-66
2022/07/08 04:51:34;;;;;;;5.13;0.90;;;13.60;99.90;;;;;;4882750;29;20053;-66
2022/07/08 04:53:59;;;;;;;5.55;0.80;;;13.60;99.90;;;;;;4881080;29;20105;-66
2022/07/08 04:56:25;;;;;;;3.30;0.90;;;13.60;99.90;;;;;;4880930;29;20462;-66
2022/07/08 04:58:51;;;;;;;3.83;0.70;;;13.60;99.90;;;;;;4882144;29;20057;-66
2022/07/08 05:01:18;;;;;;;6.05;1.00;;;13.70;99.90;;;;;;4881615;29;20049;-66
2022/07/08 05:03:44;;;;;;;6.93;1.00;;;13.70;99.90;;;;;;4882059;29;20096;-66
2022/07/08 05:06:09;;;;;;;6.20;1.17;;;13.80;99.90;;;;;;4882510;29;20048;-66
2022/07/08 05:08:35;;;;;;;8.27;0.90;;;13.90;99.90;;;;;;4881965;29;20064;-66
2022/07/08 05:11:01;;;;;;;4.85;0.80;;;13.90;99.90;;;;;;4880752;29;20088;-66
2022/07/08 05:13:26;;;;;;;5.43;0.90;;;14.00;99.90;;;;;;4865484;29;20104;-66
2022/07/08 05:15:52;;;;;;;5.30;0.88;;;14.00;99.90;;;;;;4880652;29;20037;-66
2022/07/08 05:18:18;;;;;;;6.55;1.17;;;14.10;99.90;;;;;;4881140;29;20084;-66
2022/07/08 05:20:44;;;;;;;8.73;1.00;;;14.20;99.90;;;;;;4881680;29;20056;-66
2022/07/08 05:23:09;;;;;;;7.03;0.80;;;14.20;99.90;;;;;;4881554;29;20045;-66
2022/07/08 05:25:35;;;;;;;6.38;1.23;;;14.30;99.90;;;;;;4881585;29;20056;-66
2022/07/08 05:28:01;;;;;;;5.47;1.08;;;14.30;99.90;;;;;;4881851;29;20053;-66
2022/07/08 05:30:27;;;;;;;5.60;0.85;;;14.30;99.90;;;;;;4880937;29;20084;-66
2022/07/08 05:32:52;;;;;;;8.27;0.93;;;14.40;99.90;;;;;;4880596;29;20479;-66
2022/07/08 05:35:18;;;;;;;5.65;0.90;;;14.40;99.90;;;;;;4896306;29;20470;-66
2022/07/08 05:37:44;;;;;;;9.90;1.38;;;14.40;99.90;;;;;;4881416;29;20056;-66
2022/07/08 05:40:11;;;;;;;6.70;1.02;;;14.50;99.90;;;;;;4881088;29;20497;-66
2022/07/08 05:42:37;;;;;;;5.63;1.38;;;14.50;99.90;;;;;;4881375;29;20053;-66
2022/07/08 05:45:04;;;;;;;6.80;1.25;;;14.60;99.90;;;;;;4880355;29;20053;-66
2022/07/08 05:47:29;;;;;;;5.75;1.10;;;14.70;99.90;;;;;;4881244;29;20386;-66
2022/07/08 05:49:55;;;;;;;4.10;1.05;;;14.70;99.90;;;;;;4880287;29;20056;-66
2022/07/08 05:52:21;;;;;;;4.40;1.20;;;14.70;99.90;;;;;;4881469;29;20052;-66
2022/07/08 05:54:46;;;;;;;4.78;1.33;;;14.80;99.90;;;;;;4879996;29;20061;-66
2022/07/08 05:57:13;;;;;;;9.07;1.17;;;14.90;99.90;;;;;;4880947;29;20088;-66
2022/07/08 05:59:39;;;;;;;5.20;1.10;;;14.90;99.90;;;;;;4881117;29;20057;-66
2022/07/08 06:02:05;;;;;;;7.03;0.90;;;15.00;99.90;;;;;;4881056;29;20059;-66
2022/07/08 06:04:31;;;;;;;3.50;0.80;;;15.00;99.90;;;;;;4880960;29;20059;-67
2022/07/08 06:06:57;;;;;;;7.20;1.02;;;15.10;99.90;;;;;;4880967;29;20049;-66
2022/07/08 06:09:22;;;;;;;4.53;0.90;;;15.10;99.90;;;;;;4881382;29;20045;-65
2022/07/08 06:11:48;;;;;;;3.88;0.90;;;15.10;99.90;;;;;;4880672;29;20113;-66
2022/07/08 06:14:14;;;;;;;5.88;1.13;;;15.20;99.90;;;;;;4879826;29;20478;-65
2022/07/08 06:16:40;;;;;;;5.10;1.00;;;15.20;99.90;;;;;;4880979;29;20053;-65
2022/07/08 06:19:05;;;;;;;4.35;0.98;;;15.20;99.90;;;;;;4864149;29;20045;-65
2022/07/08 06:21:31;;;;;;;9.73;1.30;;;15.30;99.90;;;;;;4879763;29;20057;-65
2022/07/08 06:23:58;;;;;;;6.75;1.00;;;15.30;99.90;;;;;;4879698;29;20057;-66
2022/07/08 06:26:24;;;;;;;6.40;1.10;;;15.40;99.90;;;;;;4880560;29;20131;-66
2022/07/08 06:28:50;;;;;;;8.35;1.13;;;15.40;99.90;;;;;;4880564;29;20056;-66
2022/07/08 06:31:15;;;;;;;6.93;0.95;;;15.50;99.90;;;;;;4879557;29;20113;-66
2022/07/08 06:33:41;;;;;;;2.67;0.95;;;15.50;99.90;;;;;;4880477;29;20052;-66
2022/07/08 06:36:07;;;;;;;6.30;1.02;;;15.60;99.90;;;;;;4880908;29;20049;-66
2022/07/08 06:38:33;;;;;;;7.53;1.10;;;15.70;99.90;;;;;;4880428;29;20049;-66
2022/07/08 06:40:59;;;;;;;3.30;1.05;;;15.80;99.90;;;;;;4863700;29;20520;-67
2022/07/08 06:43:24;;;;;;;5.55;1.08;;;15.80;99.90;;;;;;4880022;29;20053;-64
2022/07/08 06:45:50;;;;;;;5.93;0.90;;;15.90;99.90;;;;;;4880744;29;20051;-64
2022/07/08 06:48:16;;;;;;;5.68;1.15;;;15.90;99.90;;;;;;4880221;29;20124;-66
2022/07/08 06:50:41;;;;;;;4.82;0.90;;;16.00;99.90;;;;;;4880453;29;20132;-64
2022/07/08 06:53:07;;;;;;;6.30;1.33;;;16.00;99.90;;;;;;4880197;29;20048;-64
2022/07/08 06:55:33;;;;;;;5.80;0.90;;;16.10;99.90;;;;;;4879763;29;20092;-67
2022/07/08 06:57:58;;;;;;;4.65;0.98;;;16.10;99.90;;;;;;4880055;29;20067;-65
2022/07/08 07:00:24;;;;;;;7.35;1.30;;;16.20;99.90;;;;;;4879824;29;20486;-64
2022/07/08 07:02:51;;;;;;;8.13;1.17;;;16.20;99.90;;;;;;4879998;29;20391;-65
2022/07/08 07:05:19;;;;;;;4.63;1.02;;;16.30;99.90;;;;;;4879930;29;20045;-64
2022/07/08 07:07:45;;;;;;;6.88;1.00;;;16.30;99.90;;;;;;4880046;29;20135;-65
2022/07/08 07:10:11;;;;;;;8.07;0.90;;;16.30;99.90;;;;;;4880292;29;20111;-65
2022/07/08 07:12:36;;;;;;;5.20;0.90;;;16.30;99.90;;;;;;4879996;29;20048;-65
2022/07/08 07:15:02;;;;;;;4.68;0.77;;;16.40;99.90;;;;;;4880006;29;20049;-64
2022/07/08 07:17:28;;;;;;;5.43;1.00;;;16.40;99.90;;;;;;4880113;29;20056;-65
2022/07/08 07:19:54;;;;;;;4.30;1.15;;;16.40;99.90;;;;;;4863516;29;20135;-64
2022/07/08 07:22:20;;;;;;;6.20;0.75;;;16.50;99.90;;;;;;4878932;29;20079;-65
2022/07/08 07:24:45;;;;;;;6.90;1.23;;;16.50;99.90;;;;;;4884239;29;20478;-64
2022/07/08 07:27:11;;;;;;;6.50;1.23;;;16.60;99.90;;;;;;4885923;29;20048;-65
2022/07/08 07:29:37;;;;;;;7.10;1.02;;;16.60;99.90;;;;;;4886005;29;20048;-65
2022/07/08 07:32:03;;;;;;;5.93;1.00;;;16.60;99.90;;;;;;4885366;29;20089;-65
2022/07/08 07:34:29;;;;;;;6.80;1.10;;;16.60;99.90;;;;;;4886334;29;20389;-65
2022/07/08 07:36:55;;;;;;;5.97;1.00;;;16.60;99.90;;;;;;4869302;29;20132;-65
2022/07/08 07:39:21;;;;;;;6.30;1.02;;;16.60;99.90;;;;;;4886507;29;20135;-65
2022/07/08 07:41:46;;;;;;;7.72;1.10;;;16.60;99.90;;;;;;4885964;29;20070;-65
2022/07/08 07:44:12;;;;;;;4.38;1.00;;;16.60;99.90;;;;;;4886012;29;20060;-64
2022/07/08 07:46:38;;;;;;;8.60;1.40;;;16.60;99.90;;;;;;4885710;29;20450;-65
2022/07/08 07:49:04;;;;;;;6.38;1.15;;;16.60;99.90;;;;;;4886497;29;20131;-64
2022/07/08 07:51:30;;;;;;;8.57;1.30;;;16.60;99.90;;;;;;4886720;29;20390;-64
2022/07/08 07:53:56;;;;;;;5.53;1.00;;;16.60;99.90;;;;;;4886159;29;20107;-64
2022/07/08 07:56:23;;;;;;;5.97;0.80;;;16.60;99.90;;;;;;4885296;29;20414;-64
2022/07/08 07:58:49;;;;;;;5.95;1.27;;;16.60;99.90;;;;;;4885853;29;20147;-64
2022/07/08 08:01:14;;;;;;;4.30;0.73;;;16.70;99.90;;;;;;4884851;29;20088;-64
2022/07/08 08:03:40;;;;;;;4.65;0.90;;;16.70;99.90;;;;;;4885821;29;20410;-64
2022/07/08 08:06:07;;;;;;;5.75;0.88;;;16.70;99.90;;;;;;4886048;29;20474;-64
2022/07/08 08:08:33;;;;;;;4.45;0.90;;;16.70;99.90;;;;;;4886243;29;20068;-65
2022/07/08 08:11:00;;;;;;;4.65;0.73;;;16.70;99.90;;;;;;4885544;29;20140;-65
2022/07/08 08:13:26;;;;;;;4.38;0.82;;;16.70;99.90;;;;;;4885409;29;20493;-65
2022/07/08 08:15:52;;;;;;;3.50;0.80;;;16.70;99.90;;;;;;4885596;29;20051;-65
2022/07/08 08:18:18;;;;;;;4.32;0.80;;;16.70;99.90;;;;;;4885435;29;20136;-65
2022/07/08 08:20:45;;;;;;;5.60;0.80;;;16.80;99.90;;;;;;4885685;29;20084;-65
2022/07/08 08:23:11;;;;;;;6.05;0.80;;;16.80;99.90;;;;;;4886218;29;20057;-65
2022/07/08 08:25:37;;;;;;;5.18;0.80;;;16.80;99.90;;;;;;4885461;29;20525;-66
2022/07/08 08:28:04;;;;;;;3.97;1.35;;;16.90;99.90;;;;;;4884396;29;20053;-66
2022/07/08 08:30:29;;;;;;;3.35;1.13;;;16.90;99.90;;;;;;4885543;29;20052;-65
2022/07/08 08:32:55;;;;;;;4.70;0.85;;;17.00;99.90;;;;;;4885580;29;20131;-66
2022/07/08 08:35:21;;;;;;;5.20;1.10;;;17.00;99.90;;;;;;4884323;29;20041;-66
2022/07/08 08:37:47;;;;;;;5.65;0.88;;;17.00;99.90;;;;;;4882587;29;20108;-66
2022/07/08 08:40:13;;;;;;;4.28;0.70;;;17.00;99.90;;;;;;4882234;29;20055;-66
2022/07/08 08:42:40;;;;;;;4.50;0.98;;;17.10;99.90;;;;;;4882302;29;20052;-66
2022/07/08 08:45:07;;;;;;;5.18;1.10;;;17.10;99.90;;;;;;4882003;29;20056;-67
2022/07/08 08:47:36;;;;;;;4.25;0.90;;;17.10;99.90;;;;;;4882250;29;20367;-65
2022/07/08 08:52:52;;;;;;;3.90;1.05;;;17.10;99.90;;;;;;4881059;29;20135;-66
2022/07/08 08:55:29;;;;;;;6.07;1.52;;;17.10;99.90;;;;;;4881816;29;20219;-66
2022/07/08 08:58:00;;;;;;;5.28;0.95;;;17.10;99.90;;;;;;4881141;29;20061;-67
2022/07/08 09:00:27;;;;;;;2.07;0.73;;;17.10;99.90;;;;;;4895860;29;20447;-66
2022/07/08 09:02:54;;;;;;;4.78;1.10;;;17.10;99.90;;;;;;4896241;29;20041;-66
2022/07/08 09:05:21;;;;;;;6.55;0.90;;;17.10;99.90;;;;;;4880243;29;20064;-67
2022/07/08 09:07:47;;;;;;;3.65;0.73;;;17.10;99.90;;;;;;4881608;29;20049;-66
2022/07/08 09:10:15;;;;;;;4.05;0.70;;;17.20;99.90;;;;;;4881759;29;20408;-66
2022/07/08 09:12:59;;;;;;;4.97;0.85;;;17.20;99.90;;;;;;4881567;29;20057;-66
2022/07/08 09:15:36;;;;;;;4.88;0.73;;;17.20;99.90;;;;;;4880968;29;20554;-66
2022/07/08 09:18:04;;;;;;;3.83;0.90;;;17.20;99.90;;;;;;4895648;29;20105;-66
2022/07/08 09:20:39;;;;;;;2.10;0.95;;;17.20;99.90;;;;;;4880676;29;20513;-66
2022/07/08 09:23:12;;;;;;;4.25;0.70;;;17.30;99.90;;;;;;4880669;29;20446;-66
2022/07/08 09:25:38;;;;;;;3.88;0.90;;;17.30;99.90;;;;;;4880403;29;20053;-66
2022/07/08 09:28:04;;;;;;;2.20;0.80;;;17.40;99.90;;;;;;4880905;29;20057;-66
2022/07/08 09:30:30;;;;;;;3.03;0.75;;;17.40;99.90;;;;;;4880254;29;20049;-66
2022/07/08 09:32:58;;;;;;;3.88;0.90;;;17.50;99.90;;;;;;4880424;29;20183;-66
2022/07/08 09:35:35;;;;;;;4.30;0.90;;;17.50;99.90;;;;;;4880653;29;20045;-66
2022/07/08 09:38:08;;;;;;;5.07;0.93;;;17.60;99.90;;;;;;4880991;29;20052;-66
2022/07/08 09:40:34;;;;;;;;;;;17.60;99.90;;;;;;4881533;29;20041;-67
2022/07/08 09:43:01;;;;;;;4.07;1.00;;;17.70;99.90;;;;;;4880071;29;19931;-66
2022/07/08 09:45:29;;;;;;;3.90;1.02;;;17.70;99.90;;;;;;4880336;29;20378;-67
2022/07/08 09:48:04;;;;;;;3.83;1.00;;;17.70;99.90;;;;;;4893894;29;20056;-67
2022/07/08 09:50:35;;;;;;;2.97;0.80;;;17.80;99.90;;;;;;4880242;29;20085;-66
2022/07/08 09:53:13;;;;;;;5.60;0.75;;;17.90;99.90;;;;;;4880701;29;20099;-67
2022/07/08 09:55:41;;;;;;;3.42;0.90;;;17.80;99.90;;;;;;4880299;29;20064;-66
2022/07/08 09:58:10;;;;;;;4.15;1.00;;;17.80;99.90;;;;;;4895052;29;20103;-66
2022/07/08 10:00:36;;;;;;;3.25;0.80;;;17.80;99.90;;;;;;4880155;29;20502;-66
2022/07/08 10:03:04;;;;;;;5.18;0.95;;;17.80;99.90;;;;;;4879147;29;20477;-67
2022/07/08 10:05:31;;;;;;;6.65;1.00;;;17.80;99.90;;;;;;4880168;29;20053;-67
2022/07/08 10:07:57;;;;;;;3.58;1.20;;;17.90;99.90;;;;;;4879783;29;20048;-66
2022/07/08 10:10:24;;;;;;;3.83;1.00;;;17.90;99.90;;;;;;4879231;29;20049;-66
2022/07/08 10:12:52;;;;;;;5.30;1.05;;;18.00;99.90;;;;;;4880373;29;20056;-66
2022/07/08 10:15:19;;;;;;;4.32;1.00;;;18.00;99.90;;;;;;4880766;29;20053;-67
2022/07/08 10:17:46;;;;;;;5.90;1.23;;;18.10;99.90;;;;;;4879924;29;20108;-66
2022/07/08 10:20:15;;;;;;;5.00;1.00;;;18.20;99.90;;;;;;4879989;29;20059;-67
2022/07/08 10:22:43;;;;;;;4.65;1.17;;;18.30;99.90;;;;;;4880163;29;20057;-66
2022/07/08 10:25:09;;;;;;;6.28;1.10;;;18.30;99.90;;;;;;4879027;29;20059;-66
2022/07/08 10:27:36;;;;;;;3.63;1.17;;;18.40;99.90;;;;;;4879213;29;20401;-68
2022/07/08 10:30:32;;;;;;;5.35;1.10;;;18.40;99.90;;;;;;4880125;29;20135;-66
2022/07/08 10:33:01;;;;;;;4.63;1.30;;;18.50;99.90;;;;;;4878976;29;20104;-66
2022/07/08 10:35:28;;;;;;;3.17;1.00;;;18.70;99.90;;;;;;4880158;29;20370;-66
2022/07/08 10:38:00;;;;;;;4.95;1.40;;;18.70;99.90;;;;;;4880302;29;20049;-66
2022/07/08 10:40:43;;;;;;;4.25;1.27;;;18.80;99.90;;;;;;4879830;29;20045;-67
2022/07/08 10:43:18;;;;;;;3.47;1.13;;;18.90;99.90;;;;;;4878347;29;20455;-66
2022/07/08 10:46:00;;;;;;;5.72;1.08;;;18.90;99.90;;;;;;4880320;29;20118;-66
2022/07/08 10:48:47;;;;;;;3.80;0.90;;;18.90;99.90;;;;;;4879786;29;20595;-67
2022/07/08 10:51:23;;;;;;;6.30;1.20;;;18.90;99.90;;;;;;4879135;29;20293;-66
2022/07/08 10:53:55;;;;;;;3.75;1.00;;;19.00;99.90;;;;;;4878720;29;20057;-66
2022/07/08 10:56:51;;;;;;;3.97;0.88;;;19.10;99.90;;;;;;4878318;29;20057;-66
2022/07/08 10:59:20;;;;;;;3.63;1.00;;;19.10;99.90;;;;;;4878707;29;20096;-68
2022/07/08 11:01:50;;;;;;;3.38;1.17;;;19.20;99.90;;;;;;4879455;29;20044;-65
2022/07/08 11:04:32;;;;;;;3.55;0.90;;;19.30;99.90;;;;;;4879635;29;20544;-66
2022/07/08 11:07:20;;;;;;;6.20;0.90;;;19.40;99.90;;;;;;4879843;29;20433;-66
2022/07/08 11:10:13;;;;;;;3.97;0.90;;;19.50;99.90;;;;;;4879404;29;20088;-66
2022/07/08 11:12:41;;;;;;;2.90;0.95;;;19.60;99.90;;;;;;4874926;29;20057;-67
2022/07/08 11:15:16;;;;;;;2.80;0.82;;;19.60;99.90;;;;;;4878635;29;20425;-66
2022/07/08 11:17:43;;;;;;;3.40;0.80;;;19.70;99.90;;;;;;4879920;29;20037;-67
2022/07/08 11:20:18;;;;;;;5.95;1.10;;;19.70;99.90;;;;;;4879266;29;20051;-66
2022/07/08 11:22:44;;;;;;;5.75;1.48;;;19.80;99.90;;;;;;4879975;29;20045;-67
2022/07/08 11:25:13;;;;;;;3.35;0.80;;;19.80;99.90;;;;;;4878397;29;20053;-67
2022/07/08 11:27:39;;;;;;;4.72;1.00;;;19.90;99.90;;;;;;4877510;29;20064;-66
2022/07/08 11:30:10;;;;;;;2.63;0.80;;;20.00;99.90;;;;;;4879608;29;20075;-66
2022/07/08 11:32:37;;;;;;;4.10;1.00;;;20.10;99.90;;;;;;4893067;29;20096;-66
2022/07/08 11:35:03;;;;;;;5.10;1.20;;;20.10;99.90;;;;;;4879057;29;20045;-66
2022/07/08 11:37:32;;;;;;;3.20;1.02;;;20.10;99.90;;;;;;4877778;29;20047;-67
2022/07/08 11:39:59;;;;;;;5.70;1.20;;;20.20;99.90;;;;;;4878750;29;20132;-66
2022/07/08 11:42:24;;;;;;;4.70;1.08;;;20.20;99.90;;;;;;4878292;29;20467;-66
2022/07/08 11:44:51;;;;;;;4.45;0.93;;;20.20;99.90;;;;;;4892674;29;20041;-66
2022/07/08 11:47:21;;;;;;;6.00;0.93;;;20.30;99.90;;;;;;4892923;29;20448;-66
2022/07/08 11:49:48;;;;;;;3.25;0.90;;;20.30;99.90;;;;;;4879029;29;20056;-67
2022/07/08 11:52:17;;;;;;;5.15;1.38;;;20.40;99.90;;;;;;4877822;29;20063;-66
2022/07/08 11:54:46;;;;;;;3.83;0.98;;;20.40;99.90;;;;;;4878840;29;20060;-67
2022/07/08 11:57:12;;;;;;;3.22;1.10;;;20.50;99.90;;;;;;4878723;29;20053;-66
2022/07/08 11:59:38;;;;;;;4.10;1.70;;;20.60;99.90;;;;;;4878272;29;20482;-67
2022/07/08 12:02:05;;;;;;;2.42;1.00;;;20.70;99.90;;;;;;4878289;29;20064;-66
2022/07/08 12:04:31;;;;;;;4.95;1.17;;;20.70;99.90;;;;;;4878125;29;20057;-66
2022/07/08 12:06:59;;;;;;;3.38;0.88;;;20.60;99.90;;;;;;4878870;29;20063;-68
2022/07/08 12:09:26;;;;;;;5.50;1.30;;;20.70;99.90;;;;;;4879205;29;20053;-66
2022/07/08 12:11:54;;;;;;;5.63;1.30;;;20.70;99.90;;;;;;4882011;29;20053;-67
2022/07/08 12:14:20;;;;;;;4.90;1.20;;;20.60;99.90;;;;;;4882500;29;20124;-66
2022/07/08 12:16:48;;;;;;;4.22;1.15;;;20.50;99.90;;;;;;4882599;29;20128;-66
2022/07/08 12:19:30;;;;;;;2.92;1.20;;;20.50;99.90;;;;;;4881254;29;20053;-67
2022/07/08 12:22:01;;;;;;;6.13;0.98;;;20.50;99.90;;;;;;4882259;29;20044;-66
2022/07/08 12:24:35;;;;;;;4.05;1.08;;;20.50;99.90;;;;;;4881897;29;20056;-66
2022/07/08 12:27:04;;;;;;;3.92;0.90;;;20.50;99.90;;;;;;4880666;29;20482;-67
2022/07/08 12:29:37;;;;;;;3.10;1.00;;;20.50;99.90;;;;;;4881685;29;20084;-66
2022/07/08 12:32:08;;;;;;;4.18;1.10;;;20.50;99.90;;;;;;4883266;29;20056;-66
2022/07/08 12:34:34;;;;;;;2.53;1.33;;;20.50;99.90;;;;;;4882701;29;20087;-66
2022/07/08 12:37:32;;;;;;;3.40;1.30;;;20.50;99.90;;;;;;4865718;29;20057;-66
2022/07/08 12:40:15;;;;;;;2.95;1.23;;;20.60;99.90;;;;;;4850373;29;20063;-67
2022/07/08 12:42:41;;;;;;;4.50;0.90;;;20.70;99.90;;;;;;4882066;29;20051;-66
2022/07/08 12:45:14;;;;;;;4.35;0.90;;;20.70;99.90;;;;;;4881069;29;20078;-66
2022/07/08 12:47:40;;;;;;;2.78;1.10;;;20.70;99.90;;;;;;4881017;29;20124;-66
2022/07/08 12:50:06;;;;;;;3.80;1.00;;;20.80;99.90;;;;;;4881879;29;20048;-66
2022/07/08 12:52:32;;;;;;;4.68;1.20;;;20.80;99.90;;;;;;4882643;29;20131;-66
2022/07/08 12:54:58;;;;;;;2.15;1.00;;;20.90;99.90;;;;;;4881320;29;20418;-66
2022/07/08 12:57:23;;;;;;;2.85;1.00;;;20.90;99.90;;;;;;4882283;29;20072;-66